Harrietta, Michigan
Current Conditions -  °F | °C
As of 11:34 PM on Saturday 25 Oct 2014 (Local Time) from KCAD Reporting Station
Clear Clear  
Wind Chill: 43°   Ceiling: Unl
Heat Index: 49°   Visibility: 10mi
Dew Point: 31°   Wind: 13mph
Humidity: 50%   Direction: 300°WNW
Pressure: 29.82"   Gusts: 18mph
Location:  44.31°N, 85.7°W
Report Text: KCAD 260334Z AUTO 30011G16KT 10SM CLR 09/M01 A2982 RMK AO2 T00921008
Loading
Personal Weather Stations






























Interactive Weather Map
Tropical Storm Tracking
New forecast layout! Learn more

10-Day Weather Forecast

Advertisements
Track Severe Weather on mobile